sensor_id;sensor_type;location;lat;lon;timestamp;pressure;altitude;pressure_sealevel;temperature;humidity
163;BME280;3946;48.958;8.284;2023-09-12T00:01:35;99996.78;;;19.17;100.00
163;BME280;3946;48.958;8.284;2023-09-12T00:04:20;99979.91;;;19.36;100.00
163;BME280;3946;48.958;8.284;2023-09-12T00:07:05;99982.13;;;18.90;100.00
163;BME280;3946;48.958;8.284;2023-09-12T00:09:51;99991.84;;;18.98;100.00
163;BME280;3946;48.958;8.284;2023-09-12T00:12:36;99991.19;;;19.04;100.00
163;BME280;3946;48.958;8.284;2023-09-12T00:15:21;99979.88;;;19.03;100.00
163;BME280;3946;48.958;8.284;2023-09-12T00:18:06;99984.25;;;18.86;100.00
163;BME280;3946;48.958;8.284;2023-09-12T00:20:52;99992.16;;;18.95;100.00
163;BME280;3946;48.958;8.284;2023-09-12T00:23:37;99990.22;;;18.97;100.00
163;BME280;3946;48.958;8.284;2023-09-12T00:26:23;99986.25;;;19.01;100.00
163;BME280;3946;48.958;8.284;2023-09-12T00:29:09;99978.06;;;19.04;100.00
163;BME280;3946;48.958;8.284;2023-09-12T00:31:54;99981.78;;;18.77;100.00
163;BME280;3946;48.958;8.284;2023-09-12T00:34:38;99971.22;;;18.61;100.00
163;BME280;3946;48.958;8.284;2023-09-12T00:37:24;99986.81;;;18.36;100.00
163;BME280;3946;48.958;8.284;2023-09-12T00:40:10;99974.94;;;18.58;100.00
163;BME280;3946;48.958;8.284;2023-09-12T00:42:58;99965.91;;;18.52;100.00
163;BME280;3946;48.958;8.284;2023-09-12T00:45:43;99964.84;;;18.29;100.00
163;BME280;3946;48.958;8.284;2023-09-12T00:48:27;99973.13;;;18.50;100.00
163;BME280;3946;48.958;8.284;2023-09-12T00:51:13;99971.28;;;18.85;100.00
163;BME280;3946;48.958;8.284;2023-09-12T00:53:59;99964.75;;;18.89;100.00
163;BME280;3946;48.958;8.284;2023-09-12T00:56:44;99960.63;;;18.78;100.00
163;BME280;3946;48.958;8.284;2023-09-12T00:59:31;99967.97;;;18.67;100.00
163;BME280;3946;48.958;8.284;2023-09-12T01:02:17;99964.44;;;18.50;100.00
163;BME280;3946;48.958;8.284;2023-09-12T01:05:02;99960.13;;;18.75;100.00
163;BME280;3946;48.958;8.284;2023-09-12T01:07:48;99958.16;;;18.77;100.00
163;BME280;3946;48.958;8.284;2023-09-12T01:10:33;99952.25;;;18.41;100.00
163;BME280;3946;48.958;8.284;2023-09-12T01:13:18;99956.25;;;18.19;100.00
163;BME280;3946;48.958;8.284;2023-09-12T01:16:05;99970.72;;;17.97;100.00
163;BME280;3946;48.958;8.284;2023-09-12T01:18:50;99972.28;;;17.90;100.00
163;BME280;3946;48.958;8.284;2023-09-12T01:21:40;99965.88;;;17.85;100.00
163;BME280;3946;48.958;8.284;2023-09-12T01:24:39;99977.34;;;17.83;100.00
163;BME280;3946;48.958;8.284;2023-09-12T01:27:34;99985.38;;;17.82;100.00
163;BME280;3946;48.958;8.284;2023-09-12T01:30:20;99983.78;;;17.71;100.00
163;BME280;3946;48.958;8.284;2023-09-12T01:33:06;99984.69;;;17.80;100.00
163;BME280;3946;48.958;8.284;2023-09-12T01:35:52;99990.34;;;17.93;100.00
163;BME280;3946;48.958;8.284;2023-09-12T01:38:37;99983.53;;;18.00;100.00
163;BME280;3946;48.958;8.284;2023-09-12T01:41:23;99977.75;;;17.97;100.00
163;BME280;3946;48.958;8.284;2023-09-12T01:44:10;99974.84;;;18.00;100.00
163;BME280;3946;48.958;8.284;2023-09-12T01:46:56;99972.66;;;17.95;100.00
163;BME280;3946;48.958;8.284;2023-09-12T01:49:45;99961.34;;;17.95;100.00
163;BME280;3946;48.958;8.284;2023-09-12T01:52:31;99962.13;;;18.13;100.00
163;BME280;3946;48.958;8.284;2023-09-12T01:55:17;99974.22;;;17.80;100.00
163;BME280;3946;48.958;8.284;2023-09-12T01:58:03;99973.38;;;17.79;100.00
163;BME280;3946;48.958;8.284;2023-09-12T02:00:49;99972.00;;;17.67;100.00
163;BME280;3946;48.958;8.284;2023-09-12T02:03:34;99974.81;;;17.74;100.00
163;BME280;3946;48.958;8.284;2023-09-12T02:06:20;99971.78;;;17.87;100.00
163;BME280;3946;48.958;8.284;2023-09-12T02:09:05;99974.31;;;17.96;100.00
163;BME280;3946;48.958;8.284;2023-09-12T02:11:50;99971.13;;;18.10;100.00
163;BME280;3946;48.958;8.284;2023-09-12T02:14:35;99980.25;;;18.32;100.00
163;BME280;3946;48.958;8.284;2023-09-12T02:17:23;99974.28;;;18.22;100.00
163;BME280;3946;48.958;8.284;2023-09-12T02:20:09;99976.56;;;18.17;100.00
163;BME280;3946;48.958;8.284;2023-09-12T02:22:55;99974.59;;;18.19;100.00
163;BME280;3946;48.958;8.284;2023-09-12T02:25:40;99969.47;;;18.09;100.00
163;BME280;3946;48.958;8.284;2023-09-12T02:28:25;99970.16;;;18.19;100.00
163;BME280;3946;48.958;8.284;2023-09-12T02:31:10;99980.06;;;18.26;100.00
163;BME280;3946;48.958;8.284;2023-09-12T02:33:56;99970.16;;;18.19;100.00
163;BME280;3946;48.958;8.284;2023-09-12T02:36:41;99973.53;;;18.38;100.00
163;BME280;3946;48.958;8.284;2023-09-12T02:39:26;99966.81;;;18.35;100.00
163;BME280;3946;48.958;8.284;2023-09-12T02:42:12;99959.44;;;18.31;100.00
163;BME280;3946;48.958;8.284;2023-09-12T02:44:57;99961.31;;;18.21;100.00
163;BME280;3946;48.958;8.284;2023-09-12T02:47:41;99960.63;;;18.10;100.00
163;BME280;3946;48.958;8.284;2023-09-12T02:50:28;99966.59;;;17.95;100.00
163;BME280;3946;48.958;8.284;2023-09-12T02:53:13;99974.63;;;17.93;100.00
163;BME280;3946;48.958;8.284;2023-09-12T02:55:58;99973.91;;;17.83;100.00
163;BME280;3946;48.958;8.284;2023-09-12T02:58:45;99978.63;;;17.79;100.00
163;BME280;3946;48.958;8.284;2023-09-12T03:01:30;99971.44;;;17.81;100.00
163;BME280;3946;48.958;8.284;2023-09-12T03:04:16;99970.91;;;17.78;100.00
163;BME280;3946;48.958;8.284;2023-09-12T03:07:03;99968.97;;;17.80;100.00
163;BME280;3946;48.958;8.284;2023-09-12T03:09:49;99963.72;;;17.80;100.00
163;BME280;3946;48.958;8.284;2023-09-12T03:12:35;99960.56;;;18.02;100.00
163;BME280;3946;48.958;8.284;2023-09-12T03:15:20;99956.97;;;18.03;100.00
163;BME280;3946;48.958;8.284;2023-09-12T03:18:07;99961.81;;;18.16;100.00
163;BME280;3946;48.958;8.284;2023-09-12T03:20:52;99949.28;;;18.02;100.00
163;BME280;3946;48.958;8.284;2023-09-12T03:23:38;99960.56;;;18.02;100.00
163;BME280;3946;48.958;8.284;2023-09-12T03:26:23;99968.06;;;18.23;100.00
163;BME280;3946;48.958;8.284;2023-09-12T03:29:08;99955.75;;;17.90;100.00
163;BME280;3946;48.958;8.284;2023-09-12T03:31:53;99950.28;;;18.09;100.00
163;BME280;3946;48.958;8.284;2023-09-12T03:34:38;99955.38;;;18.10;100.00
163;BME280;3946;48.958;8.284;2023-09-12T03:37:23;99956.16;;;18.03;100.00
163;BME280;3946;48.958;8.284;2023-09-12T03:40:13;99957.25;;;17.92;100.00
163;BME280;3946;48.958;8.284;2023-09-12T03:42:58;99954.41;;;18.11;100.00
163;BME280;3946;48.958;8.284;2023-09-12T03:45:43;99945.09;;;17.91;100.00
163;BME280;3946;48.958;8.284;2023-09-12T03:48:28;99945.72;;;18.11;100.00
163;BME280;3946;48.958;8.284;2023-09-12T03:51:14;99954.91;;;17.89;100.00
163;BME280;3946;48.958;8.284;2023-09-12T03:53:59;99964.72;;;17.87;100.00
163;BME280;3946;48.958;8.284;2023-09-12T03:56:45;99959.81;;;17.84;100.00
163;BME280;3946;48.958;8.284;2023-09-12T03:59:31;99951.28;;;17.82;100.00
163;BME280;3946;48.958;8.284;2023-09-12T04:02:16;99964.66;;;17.97;100.00
163;BME280;3946;48.958;8.284;2023-09-12T04:05:01;99965.66;;;18.04;100.00
163;BME280;3946;48.958;8.284;2023-09-12T04:07:46;99963.38;;;18.01;100.00
163;BME280;3946;48.958;8.284;2023-09-12T04:10:32;99963.97;;;17.95;100.00
163;BME280;3946;48.958;8.284;2023-09-12T04:13:18;99960.53;;;17.94;100.00
163;BME280;3946;48.958;8.284;2023-09-12T04:16:03;99963.31;;;17.93;100.00
163;BME280;3946;48.958;8.284;2023-09-12T04:18:48;99972.69;;;18.03;100.00
163;BME280;3946;48.958;8.284;2023-09-12T04:21:33;99965.16;;;18.00;100.00
163;BME280;3946;48.958;8.284;2023-09-12T04:24:18;99969.75;;;17.98;100.00
163;BME280;3946;48.958;8.284;2023-09-12T04:27:04;99973.28;;;17.89;100.00
163;BME280;3946;48.958;8.284;2023-09-12T04:29:51;99970.72;;;17.97;100.00
163;BME280;3946;48.958;8.284;2023-09-12T04:32:36;99967.47;;;18.03;100.00
163;BME280;3946;48.958;8.284;2023-09-12T04:35:21;99964.50;;;17.98;100.00
163;BME280;3946;48.958;8.284;2023-09-12T04:38:06;99985.16;;;18.01;100.00
163;BME280;3946;48.958;8.284;2023-09-12T04:40:53;99982.47;;;17.93;100.00
163;BME280;3946;48.958;8.284;2023-09-12T04:43:38;99982.38;;;17.77;100.00
163;BME280;3946;48.958;8.284;2023-09-12T04:46:25;99984.13;;;17.68;100.00
163;BME280;3946;48.958;8.284;2023-09-12T04:49:10;99992.75;;;17.87;100.00
163;BME280;3946;48.958;8.284;2023-09-12T04:51:55;99993.16;;;17.74;100.00
163;BME280;3946;48.958;8.284;2023-09-12T04:54:40;99992.69;;;17.61;100.00
163;BME280;3946;48.958;8.284;2023-09-12T04:57:25;99993.63;;;17.52;100.00
163;BME280;3946;48.958;8.284;2023-09-12T05:00:10;99991.72;;;17.79;100.00
163;BME280;3946;48.958;8.284;2023-09-12T05:02:57;99996.41;;;17.94;100.00
163;BME280;3946;48.958;8.284;2023-09-12T05:05:42;99995.06;;;17.90;100.00
163;BME280;3946;48.958;8.284;2023-09-12T05:08:27;100003.28;;;17.69;100.00
163;BME280;3946;48.958;8.284;2023-09-12T05:11:12;100006.34;;;17.64;100.00
163;BME280;3946;48.958;8.284;2023-09-12T05:13:57;100007.44;;;17.44;100.00
163;BME280;3946;48.958;8.284;2023-09-12T05:16:44;100017.69;;;17.37;100.00
163;BME280;3946;48.958;8.284;2023-09-12T05:19:30;100015.00;;;17.29;100.00
163;BME280;3946;48.958;8.284;2023-09-12T05:22:16;100013.75;;;17.51;100.00
163;BME280;3946;48.958;8.284;2023-09-12T05:25:01;100014.13;;;17.74;100.00
163;BME280;3946;48.958;8.284;2023-09-12T05:27:46;100016.03;;;17.54;100.00
163;BME280;3946;48.958;8.284;2023-09-12T05:30:31;100013.28;;;17.56;100.00
163;BME280;3946;48.958;8.284;2023-09-12T05:33:16;100014.22;;;17.64;100.00
163;BME280;3946;48.958;8.284;2023-09-12T05:36:03;100016.94;;;17.63;100.00
163;BME280;3946;48.958;8.284;2023-09-12T05:38:48;100014.06;;;17.66;100.00
163;BME280;3946;48.958;8.284;2023-09-12T05:41:33;100016.72;;;17.56;100.00
163;BME280;3946;48.958;8.284;2023-09-12T05:44:18;100017.25;;;17.60;100.00
163;BME280;3946;48.958;8.284;2023-09-12T05:47:04;100008.44;;;17.78;100.00
163;BME280;3946;48.958;8.284;2023-09-12T05:49:50;100008.44;;;17.78;100.00
163;BME280;3946;48.958;8.284;2023-09-12T05:52:37;100014.91;;;17.92;100.00
163;BME280;3946;48.958;8.284;2023-09-12T05:55:22;100011.00;;;18.22;100.00
163;BME280;3946;48.958;8.284;2023-09-12T05:58:08;99993.03;;;18.01;100.00
163;BME280;3946;48.958;8.284;2023-09-12T06:00:54;99994.66;;;18.02;100.00
163;BME280;3946;48.958;8.284;2023-09-12T06:03:39;99999.91;;;18.02;100.00
163;BME280;3946;48.958;8.284;2023-09-12T06:06:24;100006.78;;;18.29;100.00
163;BME280;3946;48.958;8.284;2023-09-12T06:09:10;100005.03;;;18.72;100.00
163;BME280;3946;48.958;8.284;2023-09-12T06:11:55;99996.94;;;18.99;100.00
163;BME280;3946;48.958;8.284;2023-09-12T06:14:40;100005.66;;;19.08;100.00
163;BME280;3946;48.958;8.284;2023-09-12T06:17:25;100010.31;;;19.30;100.00
163;BME280;3946;48.958;8.284;2023-09-12T06:20:10;100015.94;;;19.51;100.00
163;BME280;3946;48.958;8.284;2023-09-12T06:22:55;100012.63;;;19.49;100.00
163;BME280;3946;48.958;8.284;2023-09-12T06:25:44;100012.47;;;19.51;100.00
163;BME280;3946;48.958;8.284;2023-09-12T06:28:30;100001.66;;;19.62;100.00
163;BME280;3946;48.958;8.284;2023-09-12T06:31:15;100007.91;;;19.77;100.00
163;BME280;3946;48.958;8.284;2023-09-12T06:34:00;100002.91;;;20.07;100.00
163;BME280;3946;48.958;8.284;2023-09-12T06:36:45;100004.06;;;20.12;100.00
163;BME280;3946;48.958;8.284;2023-09-12T06:39:30;100008.63;;;20.43;100.00
163;BME280;3946;48.958;8.284;2023-09-12T06:42:16;100002.66;;;20.49;100.00
163;BME280;3946;48.958;8.284;2023-09-12T06:45:01;99997.13;;;20.27;100.00
163;BME280;3946;48.958;8.284;2023-09-12T06:47:46;100003.66;;;20.48;100.00
163;BME280;3946;48.958;8.284;2023-09-12T06:50:31;100004.56;;;20.71;100.00
163;BME280;3946;48.958;8.284;2023-09-12T06:53:16;100010.00;;;21.01;100.00
163;BME280;3946;48.958;8.284;2023-09-12T06:56:01;100015.94;;;21.03;100.00
163;BME280;3946;48.958;8.284;2023-09-12T06:58:48;100018.31;;;21.12;100.00
163;BME280;3946;48.958;8.284;2023-09-12T07:01:33;100015.00;;;21.18;100.00
163;BME280;3946;48.958;8.284;2023-09-12T07:04:18;100016.22;;;21.39;100.00
163;BME280;3946;48.958;8.284;2023-09-12T07:07:03;100005.91;;;21.52;99.21
163;BME280;3946;48.958;8.284;2023-09-12T07:09:49;100008.13;;;21.63;98.19
163;BME280;3946;48.958;8.284;2023-09-12T07:12:34;100009.81;;;21.93;95.77
163;BME280;3946;48.958;8.284;2023-09-12T07:15:20;100001.69;;;22.03;94.48
163;BME280;3946;48.958;8.284;2023-09-12T07:18:05;100004.00;;;22.06;93.73
163;BME280;3946;48.958;8.284;2023-09-12T07:20:56;100006.19;;;22.32;93.56
163;BME280;3946;48.958;8.284;2023-09-12T07:23:41;100007.63;;;22.64;91.71
163;BME280;3946;48.958;8.284;2023-09-12T07:26:26;99996.75;;;22.74;90.26
163;BME280;3946;48.958;8.284;2023-09-12T07:29:11;99994.44;;;22.49;90.62
163;BME280;3946;48.958;8.284;2023-09-12T07:31:58;100000.69;;;22.63;89.28
163;BME280;3946;48.958;8.284;2023-09-12T07:34:43;99995.47;;;22.99;89.04
163;BME280;3946;48.958;8.284;2023-09-12T07:37:32;99991.63;;;23.23;87.81
163;BME280;3946;48.958;8.284;2023-09-12T07:40:17;100001.38;;;23.58;87.82
163;BME280;3946;48.958;8.284;2023-09-12T07:43:01;99997.69;;;23.38;85.93
163;BME280;3946;48.958;8.284;2023-09-12T07:45:47;100006.59;;;23.52;85.62
163;BME280;3946;48.958;8.284;2023-09-12T07:48:34;100010.75;;;23.61;86.29
163;BME280;3946;48.958;8.284;2023-09-12T07:51:19;100012.06;;;23.50;85.21
163;BME280;3946;48.958;8.284;2023-09-12T07:54:06;100007.06;;;23.83;84.86
163;BME280;3946;48.958;8.284;2023-09-12T07:56:51;99998.88;;;24.06;84.15
163;BME280;3946;48.958;8.284;2023-09-12T07:59:36;100008.22;;;24.30;84.07
163;BME280;3946;48.958;8.284;2023-09-12T08:02:21;100003.66;;;24.17;82.56
163;BME280;3946;48.958;8.284;2023-09-12T08:05:08;100006.63;;;24.35;80.56
163;BME280;3946;48.958;8.284;2023-09-12T08:07:53;100011.53;;;24.11;80.26
163;BME280;3946;48.958;8.284;2023-09-12T08:10:39;100014.63;;;24.42;80.85
163;BME280;3946;48.958;8.284;2023-09-12T08:13:25;100013.03;;;24.48;78.70
163;BME280;3946;48.958;8.284;2023-09-12T08:16:10;100020.13;;;23.85;78.90
163;BME280;3946;48.958;8.284;2023-09-12T08:18:55;100014.72;;;23.99;79.21
163;BME280;3946;48.958;8.284;2023-09-12T08:21:41;100019.41;;;23.97;79.97
163;BME280;3946;48.958;8.284;2023-09-12T08:24:27;100023.88;;;23.97;78.73
163;BME280;3946;48.958;8.284;2023-09-12T08:27:12;100024.78;;;23.61;80.70
163;BME280;3946;48.958;8.284;2023-09-12T08:29:57;100025.53;;;23.77;78.54
163;BME280;3946;48.958;8.284;2023-09-12T08:32:42;100028.78;;;24.00;79.57
163;BME280;3946;48.958;8.284;2023-09-12T08:35:28;100022.38;;;24.44;76.97
163;BME280;3946;48.958;8.284;2023-09-12T08:38:14;100029.25;;;24.38;79.08
163;BME280;3946;48.958;8.284;2023-09-12T08:40:59;100025.75;;;24.65;78.34
163;BME280;3946;48.958;8.284;2023-09-12T08:43:44;100020.63;;;24.98;76.87
163;BME280;3946;48.958;8.284;2023-09-12T08:46:30;100020.03;;;25.23;75.54
163;BME280;3946;48.958;8.284;2023-09-12T08:49:15;100013.91;;;25.09;76.11
163;BME280;3946;48.958;8.284;2023-09-12T08:52:00;100019.28;;;25.49;75.24
163;BME280;3946;48.958;8.284;2023-09-12T08:54:47;100027.22;;;25.35;75.15
163;BME280;3946;48.958;8.284;2023-09-12T08:57:33;100025.75;;;25.13;75.85
163;BME280;3946;48.958;8.284;2023-09-12T09:00:18;100033.25;;;25.03;75.92
163;BME280;3946;48.958;8.284;2023-09-12T09:03:04;100035.09;;;24.61;76.23
163;BME280;3946;48.958;8.284;2023-09-12T09:05:50;100030.19;;;24.58;77.29
163;BME280;3946;48.958;8.284;2023-09-12T09:08:36;100024.88;;;24.58;77.26
163;BME280;3946;48.958;8.284;2023-09-12T09:11:23;100023.22;;;24.51;77.28
163;BME280;3946;48.958;8.284;2023-09-12T09:14:11;100026.59;;;24.38;77.91
163;BME280;3946;48.958;8.284;2023-09-12T09:16:56;100023.00;;;24.18;78.56
163;BME280;3946;48.958;8.284;2023-09-12T09:19:41;100021.47;;;24.02;78.71
163;BME280;3946;48.958;8.284;2023-09-12T09:22:27;100014.34;;;24.30;77.80
163;BME280;3946;48.958;8.284;2023-09-12T09:25:12;100009.19;;;24.57;76.07
163;BME280;3946;48.958;8.284;2023-09-12T09:27:58;100001.38;;;24.90;75.89
163;BME280;3946;48.958;8.284;2023-09-12T09:30:47;99997.03;;;25.43;74.37
163;BME280;3946;48.958;8.284;2023-09-12T09:33:34;99984.97;;;26.00;72.31
163;BME280;3946;48.958;8.284;2023-09-12T09:36:19;99987.88;;;25.92;71.88
163;BME280;3946;48.958;8.284;2023-09-12T09:39:05;99985.19;;;26.05;72.07
163;BME280;3946;48.958;8.284;2023-09-12T09:41:51;99973.28;;;26.34;70.11
163;BME280;3946;48.958;8.284;2023-09-12T09:44:38;99981.47;;;26.32;69.82
163;BME280;3946;48.958;8.284;2023-09-12T09:47:23;99984.53;;;26.42;69.68
163;BME280;3946;48.958;8.284;2023-09-12T09:50:08;99983.91;;;26.34;70.57
163;BME280;3946;48.958;8.284;2023-09-12T09:53:00;99988.00;;;26.23;70.55
163;BME280;3946;48.958;8.284;2023-09-12T09:55:48;100008.28;;;25.58;72.63
163;BME280;3946;48.958;8.284;2023-09-12T09:58:33;99999.47;;;26.30;71.88
163;BME280;3946;48.958;8.284;2023-09-12T10:01:20;99999.47;;;26.24;71.54
163;BME280;3946;48.958;8.284;2023-09-12T10:04:05;99995.38;;;26.79;70.74
163;BME280;3946;48.958;8.284;2023-09-12T10:06:50;99973.69;;;26.82;68.57
163;BME280;3946;48.958;8.284;2023-09-12T10:09:38;99974.88;;;26.99;68.21
163;BME280;3946;48.958;8.284;2023-09-12T10:12:23;99980.41;;;27.29;68.43
163;BME280;3946;48.958;8.284;2023-09-12T10:15:09;99980.03;;;27.26;69.05
163;BME280;3946;48.958;8.284;2023-09-12T10:17:59;99968.88;;;27.42;67.42
163;BME280;3946;48.958;8.284;2023-09-12T10:20:47;99972.78;;;27.08;68.39
163;BME280;3946;48.958;8.284;2023-09-12T10:23:36;99963.88;;;27.27;68.09
163;BME280;3946;48.958;8.284;2023-09-12T10:26:25;99952.91;;;27.42;67.29
163;BME280;3946;48.958;8.284;2023-09-12T10:29:12;99949.16;;;27.18;66.61
163;BME280;3946;48.958;8.284;2023-09-12T10:31:57;99948.44;;;27.85;67.37
163;BME280;3946;48.958;8.284;2023-09-12T10:34:44;99940.50;;;28.22;65.23
163;BME280;3946;48.958;8.284;2023-09-12T10:37:30;99938.75;;;28.46;64.56
163;BME280;3946;48.958;8.284;2023-09-12T10:40:16;99922.19;;;28.44;63.61
163;BME280;3946;48.958;8.284;2023-09-12T10:43:03;99929.91;;;28.82;63.23
163;BME280;3946;48.958;8.284;2023-09-12T10:45:49;99927.50;;;28.44;63.88
163;BME280;3946;48.958;8.284;2023-09-12T10:48:34;99920.84;;;28.53;63.20
163;BME280;3946;48.958;8.284;2023-09-12T10:51:21;99934.41;;;28.51;64.73
163;BME280;3946;48.958;8.284;2023-09-12T10:54:06;99918.03;;;28.48;62.83
163;BME280;3946;48.958;8.284;2023-09-12T10:57:01;99916.44;;;28.59;62.30
163;BME280;3946;48.958;8.284;2023-09-12T11:02:47;99895.84;;;28.96;58.28
163;BME280;3946;48.958;8.284;2023-09-12T11:05:37;99889.28;;;29.21;57.43
163;BME280;3946;48.958;8.284;2023-09-12T11:08:24;99900.47;;;29.42;58.08
163;BME280;3946;48.958;8.284;2023-09-12T11:11:18;99898.66;;;29.24;57.19
163;BME280;3946;48.958;8.284;2023-09-12T11:14:04;99903.88;;;29.07;59.29
163;BME280;3946;48.958;8.284;2023-09-12T11:19:53;99905.47;;;28.97;58.54
163;BME280;3946;48.958;8.284;2023-09-12T11:22:39;99898.06;;;29.10;58.36
163;BME280;3946;48.958;8.284;2023-09-12T11:25:26;99897.31;;;29.45;58.87
163;BME280;3946;48.958;8.284;2023-09-12T11:28:11;99884.19;;;29.55;57.73
163;BME280;3946;48.958;8.284;2023-09-12T11:30:56;99872.34;;;29.74;55.31
163;BME280;3946;48.958;8.284;2023-09-12T11:33:42;99880.72;;;30.01;56.51
163;BME280;3946;48.958;8.284;2023-09-12T11:36:27;99865.25;;;30.03;54.11
163;BME280;3946;48.958;8.284;2023-09-12T11:39:24;99862.31;;;30.05;54.40
163;BME280;3946;48.958;8.284;2023-09-12T11:42:11;99861.38;;;30.39;54.49
163;BME280;3946;48.958;8.284;2023-09-12T11:44:57;99871.50;;;30.37;55.93
163;BME280;3946;48.958;8.284;2023-09-12T11:47:44;99855.28;;;30.27;54.39
163;BME280;3946;48.958;8.284;2023-09-12T11:50:29;99868.69;;;30.04;55.15
163;BME280;3946;48.958;8.284;2023-09-12T11:53:14;99856.56;;;30.24;53.88
163;BME280;3946;48.958;8.284;2023-09-12T11:55:59;99864.91;;;30.28;55.40
163;BME280;3946;48.958;8.284;2023-09-12T11:58:46;99859.50;;;30.51;54.37
163;BME280;3946;48.958;8.284;2023-09-12T12:01:31;99858.34;;;30.47;53.47
163;BME280;3946;48.958;8.284;2023-09-12T12:04:16;99851.56;;;30.28;52.42
163;BME280;3946;48.958;8.284;2023-09-12T12:07:02;99850.50;;;30.57;52.43
163;BME280;3946;48.958;8.284;2023-09-12T12:09:48;99842.19;;;30.71;51.95
163;BME280;3946;48.958;8.284;2023-09-12T12:12:33;99834.91;;;30.66;50.54
163;BME280;3946;48.958;8.284;2023-09-12T12:15:22;99832.06;;;30.73;51.49
163;BME280;3946;48.958;8.284;2023-09-12T12:18:07;99835.97;;;30.99;52.07
163;BME280;3946;48.958;8.284;2023-09-12T12:20:52;99816.13;;;31.11;49.46
163;BME280;3946;48.958;8.284;2023-09-12T12:23:37;99807.06;;;31.34;48.20
163;BME280;3946;48.958;8.284;2023-09-12T12:26:24;99814.84;;;31.36;49.55
163;BME280;3946;48.958;8.284;2023-09-12T12:29:09;99812.00;;;31.42;48.92
163;BME280;3946;48.958;8.284;2023-09-12T12:32:00;99818.69;;;31.23;47.98
163;BME280;3946;48.958;8.284;2023-09-12T12:34:47;99810.81;;;31.55;48.10
163;BME280;3946;48.958;8.284;2023-09-12T12:37:32;99820.94;;;31.48;50.33
163;BME280;3946;48.958;8.284;2023-09-12T12:40:18;99790.91;;;31.46;47.25
163;BME280;3946;48.958;8.284;2023-09-12T12:43:03;99793.56;;;31.46;47.93
163;BME280;3946;48.958;8.284;2023-09-12T12:45:52;99795.31;;;31.57;47.71
163;BME280;3946;48.958;8.284;2023-09-12T12:48:39;99780.38;;;31.61;46.88
163;BME280;3946;48.958;8.284;2023-09-12T12:51:29;99793.03;;;31.87;47.51
163;BME280;3946;48.958;8.284;2023-09-12T12:54:14;99781.31;;;31.72;47.05
163;BME280;3946;48.958;8.284;2023-09-12T12:56:59;99780.50;;;31.49;47.20
163;BME280;3946;48.958;8.284;2023-09-12T12:59:45;99794.94;;;31.48;48.59
163;BME280;3946;48.958;8.284;2023-09-12T13:02:30;99785.34;;;31.52;46.79
163;BME280;3946;48.958;8.284;2023-09-12T13:05:21;99774.25;;;31.44;46.66
163;BME280;3946;48.958;8.284;2023-09-12T13:08:09;99795.31;;;31.18;49.27
163;BME280;3946;48.958;8.284;2023-09-12T13:10:54;99778.97;;;31.37;48.25
163;BME280;3946;48.958;8.284;2023-09-12T13:13:39;99772.50;;;31.54;48.18
163;BME280;3946;48.958;8.284;2023-09-12T13:16:24;99765.38;;;31.82;46.17
163;BME280;3946;48.958;8.284;2023-09-12T13:19:09;99775.81;;;32.05;47.41
163;BME280;3946;48.958;8.284;2023-09-12T13:21:57;99774.13;;;31.55;48.67
163;BME280;3946;48.958;8.284;2023-09-12T13:24:42;99761.25;;;31.74;47.39
163;BME280;3946;48.958;8.284;2023-09-12T13:27:27;99761.94;;;31.43;47.53
163;BME280;3946;48.958;8.284;2023-09-12T13:30:12;99760.13;;;31.48;48.38
163;BME280;3946;48.958;8.284;2023-09-12T13:32:57;99763.84;;;31.25;49.00
163;BME280;3946;48.958;8.284;2023-09-12T13:35:46;99756.97;;;31.13;48.86
163;BME280;3946;48.958;8.284;2023-09-12T13:38:32;99759.66;;;31.35;48.51
163;BME280;3946;48.958;8.284;2023-09-12T13:41:19;99749.03;;;31.61;48.16
163;BME280;3946;48.958;8.284;2023-09-12T13:44:06;99722.19;;;31.78;45.66
163;BME280;3946;48.958;8.284;2023-09-12T13:46:53;99735.00;;;31.54;46.50
163;BME280;3946;48.958;8.284;2023-09-12T13:49:38;99730.94;;;31.52;46.83
163;BME280;3946;48.958;8.284;2023-09-12T13:52:25;99722.03;;;31.90;46.06
163;BME280;3946;48.958;8.284;2023-09-12T13:55:12;99702.88;;;31.76;44.53
163;BME280;3946;48.958;8.284;2023-09-12T13:58:00;99729.78;;;31.43;48.10
163;BME280;3946;48.958;8.284;2023-09-12T14:00:46;99730.66;;;31.26;48.18
163;BME280;3946;48.958;8.284;2023-09-12T14:03:31;99721.81;;;31.48;46.87
163;BME280;3946;48.958;8.284;2023-09-12T14:06:19;99738.03;;;31.80;48.83
163;BME280;3946;48.958;8.284;2023-09-12T14:09:07;99725.31;;;31.48;47.85
163;BME280;3946;48.958;8.284;2023-09-12T14:11:53;99694.50;;;31.51;44.79
163;BME280;3946;48.958;8.284;2023-09-12T14:14:38;99698.81;;;31.74;45.52
163;BME280;3946;48.958;8.284;2023-09-12T14:17:23;99697.25;;;31.78;44.64
163;BME280;3946;48.958;8.284;2023-09-12T14:20:09;99697.91;;;31.90;44.82
163;BME280;3946;48.958;8.284;2023-09-12T14:22:54;99692.72;;;31.78;44.26
163;BME280;3946;48.958;8.284;2023-09-12T14:25:41;99720.25;;;32.00;46.91
163;BME280;3946;48.958;8.284;2023-09-12T14:28:27;99718.44;;;31.79;46.61
163;BME280;3946;48.958;8.284;2023-09-12T14:31:15;99694.94;;;31.64;44.90
163;BME280;3946;48.958;8.284;2023-09-12T14:34:01;99695.94;;;31.80;44.59
163;BME280;3946;48.958;8.284;2023-09-12T14:36:46;99700.25;;;31.59;44.75
163;BME280;3946;48.958;8.284;2023-09-12T14:39:31;99671.16;;;31.95;41.17
163;BME280;3946;48.958;8.284;2023-09-12T14:42:16;99715.78;;;31.79;45.92
163;BME280;3946;48.958;8.284;2023-09-12T14:45:02;99701.09;;;31.87;45.06
163;BME280;3946;48.958;8.284;2023-09-12T14:47:47;99690.09;;;31.61;43.90
163;BME280;3946;48.958;8.284;2023-09-12T14:50:32;99708.25;;;31.33;45.71
163;BME280;3946;48.958;8.284;2023-09-12T14:53:18;99691.44;;;31.15;44.40
163;BME280;3946;48.958;8.284;2023-09-12T14:56:02;99679.31;;;31.35;43.12
163;BME280;3946;48.958;8.284;2023-09-12T14:58:48;99672.63;;;31.32;43.17
163;BME280;3946;48.958;8.284;2023-09-12T15:01:34;99656.47;;;31.49;42.07
163;BME280;3946;48.958;8.284;2023-09-12T15:04:19;99678.25;;;31.36;44.90
163;BME280;3946;48.958;8.284;2023-09-12T15:07:04;99680.19;;;31.40;45.08
163;BME280;3946;48.958;8.284;2023-09-12T15:09:49;99661.09;;;31.32;43.28
163;BME280;3946;48.958;8.284;2023-09-12T15:12:34;99652.25;;;31.31;42.92